createdAt,value
2022-12-14T00:01:49.345Z,5.28
2022-12-14T00:04:17.289Z,6.35
2022-12-14T00:06:44.422Z,5.60
2022-12-14T00:09:11.702Z,5.63
2022-12-14T00:11:38.801Z,5.80
2022-12-14T00:14:06.056Z,5.97
2022-12-14T00:16:35.235Z,5.88
2022-12-14T00:19:02.918Z,5.40
2022-12-14T00:21:30.150Z,5.85
2022-12-14T00:23:59.563Z,5.60
2022-12-14T00:26:29.125Z,6.07
2022-12-14T00:28:58.598Z,6.32
2022-12-14T00:31:25.859Z,6.80
2022-12-14T00:33:53.348Z,5.22
2022-12-14T00:36:20.952Z,4.40
2022-12-14T00:38:48.081Z,5.60
2022-12-14T00:41:15.195Z,6.38
2022-12-14T00:43:42.281Z,6.03
2022-12-14T00:46:09.547Z,6.10
2022-12-14T00:48:36.660Z,3.88
2022-12-14T00:51:03.941Z,5.97
2022-12-14T00:53:31.250Z,5.97
2022-12-14T00:56:08.009Z,6.72
2022-12-14T00:58:35.468Z,5.53
2022-12-14T01:01:05.560Z,4.13
2022-12-14T01:03:33.823Z,5.25
2022-12-14T01:06:01.765Z,6.30
2022-12-14T01:08:35.900Z,5.15
2022-12-14T01:11:07.497Z,5.75
2022-12-14T01:13:35.676Z,6.13
2022-12-14T01:16:14.550Z,5.80
2022-12-14T01:18:43.147Z,4.90
2022-12-14T01:21:14.850Z,3.30
2022-12-14T01:23:42.753Z,5.13
2022-12-14T01:26:10.488Z,5.15
2022-12-14T01:28:37.535Z,6.22
2022-12-14T01:31:10.395Z,3.97
2022-12-14T01:33:37.659Z,3.78
2022-12-14T01:36:06.735Z,5.63
2022-12-14T01:38:33.813Z,5.00
2022-12-14T01:41:01.265Z,5.07
2022-12-14T01:43:51.406Z,4.85
2022-12-14T01:46:25.520Z,5.10
2022-12-14T01:48:57.196Z,3.85
2022-12-14T01:51:26.929Z,5.15
2022-12-14T01:53:56.341Z,5.03
2022-12-14T01:56:23.478Z,6.20
2022-12-14T01:58:50.727Z,5.75
2022-12-14T02:01:18.101Z,5.80
2022-12-14T02:03:51.694Z,6.38
2022-12-14T02:06:36.297Z,4.70
2022-12-14T02:09:09.601Z,5.63
2022-12-14T02:11:46.761Z,5.38
2022-12-14T02:14:14.572Z,5.95
2022-12-14T02:16:41.887Z,4.97
2022-12-14T02:19:09.158Z,4.70
2022-12-14T02:22:08.063Z,4.72
2022-12-14T02:25:17.345Z,4.90
2022-12-14T02:28:20.066Z,5.15
2022-12-14T02:31:10.414Z,5.03
2022-12-14T02:33:56.367Z,5.13
2022-12-14T02:37:01.909Z,5.82
2022-12-14T02:39:46.005Z,4.05
2022-12-14T02:42:26.974Z,5.82
2022-12-14T02:45:22.259Z,5.43
2022-12-14T02:47:54.742Z,4.47
2022-12-14T02:50:40.280Z,5.15
2022-12-14T02:53:10.668Z,5.32
2022-12-14T02:55:48.528Z,4.03
2022-12-14T02:58:21.363Z,5.25
2022-12-14T03:00:49.492Z,4.97
2022-12-14T03:03:16.856Z,6.03
2022-12-14T03:05:43.922Z,4.25
2022-12-14T03:08:14.025Z,5.88
2022-12-14T03:10:58.452Z,5.43
2022-12-14T03:13:32.029Z,5.47
2022-12-14T03:16:11.502Z,4.82
2022-12-14T03:18:45.988Z,5.80
2022-12-14T03:21:19.205Z,5.50
2022-12-14T03:26:24.360Z,5.85
2022-12-14T03:28:57.054Z,5.90
2022-12-14T03:31:34.291Z,6.00
2022-12-14T03:34:05.392Z,5.78
2022-12-14T03:36:56.951Z,7.05
2022-12-14T03:39:30.992Z,6.50
2022-12-14T03:42:24.731Z,3.92
2022-12-14T03:48:02.015Z,5.70
2022-12-14T03:50:44.012Z,5.05
2022-12-14T03:53:11.143Z,5.03
2022-12-14T03:56:04.680Z,4.35
2022-12-14T03:59:08.015Z,4.85
2022-12-14T04:02:04.327Z,5.40
2022-12-14T04:04:42.406Z,4.88
2022-12-14T04:07:18.229Z,5.55
2022-12-14T04:09:50.442Z,6.03
2022-12-14T04:12:45.296Z,4.70
2022-12-14T04:15:41.146Z,6.25
2022-12-14T04:18:34.628Z,5.95
2022-12-14T04:21:10.886Z,7.18
2022-12-14T04:24:05.445Z,5.72
2022-12-14T04:26:38.859Z,5.85
2022-12-14T04:29:29.786Z,3.63
2022-12-14T04:32:14.084Z,7.13
2022-12-14T04:34:44.959Z,6.65
2022-12-14T04:37:16.880Z,5.25
2022-12-14T04:39:56.219Z,7.82
2022-12-14T04:42:30.937Z,6.15
2022-12-14T04:45:07.199Z,5.97
2022-12-14T04:47:42.393Z,6.70
2022-12-14T04:50:17.860Z,7.32
2022-12-14T04:52:55.864Z,6.82
2022-12-14T04:55:57.068Z,7.20
2022-12-14T04:58:30.614Z,6.88
2022-12-14T05:01:27.985Z,7.35
2022-12-14T05:04:12.150Z,7.00
2022-12-14T05:06:54.962Z,7.53
2022-12-14T05:09:32.315Z,5.78
2022-12-14T05:12:09.813Z,7.82
2022-12-14T05:15:09.525Z,6.72
2022-12-14T05:17:41.818Z,6.30
2022-12-14T05:20:21.051Z,6.10
2022-12-14T05:22:48.450Z,7.13
2022-12-14T05:25:16.396Z,8.18
2022-12-14T05:27:43.525Z,7.82
2022-12-14T05:30:11.395Z,7.47
2022-12-14T05:32:38.997Z,6.97
2022-12-14T05:35:07.260Z,7.68
2022-12-14T05:37:34.408Z,8.60
2022-12-14T05:40:02.054Z,6.75
2022-12-14T05:42:31.638Z,7.43
2022-12-14T05:44:58.779Z,7.85
2022-12-14T05:47:27.420Z,8.27
2022-12-14T05:49:54.705Z,6.45
2022-12-14T05:52:25.658Z,7.30
2022-12-14T05:54:53.152Z,7.15
2022-12-14T05:57:20.420Z,7.65
2022-12-14T05:59:47.678Z,8.02
2022-12-14T06:02:14.869Z,8.25
2022-12-14T06:04:42.086Z,5.88
2022-12-14T06:07:12.800Z,7.40
2022-12-14T06:09:39.902Z,7.53
2022-12-14T06:12:07.045Z,7.03
2022-12-14T06:14:34.164Z,8.43
2022-12-14T06:17:01.230Z,8.10
2022-12-14T06:19:28.284Z,8.95
2022-12-14T06:21:55.401Z,8.05
2022-12-14T06:24:22.499Z,8.40
2022-12-14T06:26:49.612Z,7.50
2022-12-14T06:29:19.424Z,7.35
2022-12-14T06:31:48.997Z,6.57
2022-12-14T06:34:17.156Z,8.02
2022-12-14T06:36:44.428Z,7.82
2022-12-14T06:39:14.834Z,9.20
2022-12-14T06:41:42.768Z,7.65
2022-12-14T06:44:14.364Z,9.27
2022-12-14T06:46:43.845Z,9.15
2022-12-14T06:49:15.669Z,7.72
2022-12-14T06:51:43.513Z,8.32
2022-12-14T06:54:13.113Z,8.05
2022-12-14T06:56:40.815Z,7.85
2022-12-14T06:59:11.662Z,8.80
2022-12-14T07:01:41.739Z,8.07
2022-12-14T07:04:11.997Z,8.65
2022-12-14T07:06:43.525Z,9.43
2022-12-14T07:09:13.465Z,9.15
2022-12-14T07:11:44.042Z,8.57
2022-12-14T07:14:17.497Z,8.50
2022-12-14T07:16:48.805Z,9.20
2022-12-14T07:20:06.957Z,8.35
2022-12-14T07:22:37.202Z,9.32
2022-12-14T07:25:09.887Z,8.40
2022-12-14T07:27:41.361Z,8.30
2022-12-14T07:30:12.907Z,7.57
2022-12-14T07:32:52.081Z,8.65
2022-12-14T07:35:25.997Z,8.93
2022-12-14T07:38:04.017Z,6.97
2022-12-14T07:41:01.495Z,7.55
2022-12-14T07:43:54.086Z,7.72
2022-12-14T07:47:40.352Z,9.55
2022-12-14T07:49:57.881Z,8.55
2022-12-14T07:52:35.731Z,8.68
2022-12-14T07:55:27.914Z,8.65
2022-12-14T07:58:43.286Z,8.60
2022-12-14T08:01:32.665Z,9.13
2022-12-14T08:04:23.891Z,10.10
2022-12-14T08:06:59.791Z,9.40
2022-12-14T08:09:28.472Z,9.38
2022-12-14T08:12:19.129Z,8.75
2022-12-14T08:15:05.627Z,8.25
2022-12-14T08:17:35.032Z,8.32
2022-12-14T08:20:36.657Z,9.38
2022-12-14T08:26:13.075Z,8.73
2022-12-14T08:29:10.950Z,8.02
2022-12-14T08:31:47.680Z,9.38
2022-12-14T08:34:30.922Z,8.55
2022-12-14T08:45:20.726Z,8.60
2022-12-14T09:07:13.678Z,7.78
2022-12-14T09:10:02.363Z,9.20
2022-12-14T09:13:25.957Z,8.00
2022-12-14T09:16:09.211Z,7.78
2022-12-14T09:19:05.379Z,8.98
2022-12-14T09:21:39.136Z,8.40
2022-12-14T09:24:07.179Z,7.85
2022-12-14T09:26:34.314Z,7.13
2022-12-14T09:29:01.470Z,7.53
2022-12-14T09:31:28.986Z,8.60
2022-12-14T09:33:56.937Z,7.70
2022-12-14T09:36:27.165Z,8.18
2022-12-14T09:38:57.757Z,8.20
2022-12-14T09:41:33.695Z,8.07
2022-12-14T09:44:27.034Z,7.75
2022-12-14T09:47:09.588Z,7.43
2022-12-14T09:49:45.554Z,7.67
2022-12-14T09:52:20.950Z,8.45
2022-12-14T09:54:50.928Z,8.05
2022-12-14T09:57:37.958Z,7.68
2022-12-14T10:00:13.555Z,8.10
2022-12-14T10:03:04.555Z,8.52
2022-12-14T10:05:36.632Z,8.15
2022-12-14T10:08:26.786Z,7.93
2022-12-14T10:11:11.608Z,7.50
2022-12-14T10:13:53.799Z,8.30
2022-12-14T10:16:39.659Z,7.63
2022-12-14T10:19:46.623Z,8.02
2022-12-14T10:22:20.410Z,7.40
2022-12-14T10:25:13.301Z,7.90
2022-12-14T10:28:09.776Z,7.90
2022-12-14T10:30:33.045Z,8.35
2022-12-14T10:33:17.834Z,7.10
2022-12-14T10:35:56.687Z,6.07
2022-12-14T10:38:52.769Z,8.63
2022-12-14T10:41:36.632Z,8.48
2022-12-14T10:44:09.354Z,8.25
2022-12-14T10:46:57.071Z,7.50
2022-12-14T10:49:44.935Z,7.47
2022-12-14T10:52:20.196Z,6.88
2022-12-14T10:54:52.395Z,7.50
2022-12-14T10:57:26.525Z,7.38
2022-12-14T11:00:08.003Z,7.20
2022-12-14T11:02:41.726Z,6.43
2022-12-14T11:05:37.091Z,6.50
2022-12-14T11:08:08.304Z,5.65
2022-12-14T11:10:39.554Z,5.68
2022-12-14T11:13:12.978Z,5.88
2022-12-14T11:15:41.573Z,5.85
2022-12-14T11:18:17.699Z,5.45
2022-12-14T11:20:51.304Z,4.68
2022-12-14T11:23:21.773Z,5.72
2022-12-14T11:25:51.587Z,5.05
2022-12-14T11:28:50.874Z,5.10
2022-12-14T11:31:20.975Z,4.55
2022-12-14T11:33:56.799Z,4.93
2022-12-14T11:36:37.223Z,4.22
2022-12-14T11:39:13.288Z,3.28
2022-12-14T11:41:43.519Z,3.33
2022-12-14T11:44:16.743Z,3.65
2022-12-14T11:47:02.057Z,3.75
2022-12-14T11:49:41.337Z,2.70
2022-12-14T11:52:18.394Z,3.05
2022-12-14T11:55:12.195Z,2.72
2022-12-14T12:00:49.500Z,2.00
2022-12-14T12:03:28.411Z,1.77
2022-12-14T12:06:02.695Z,2.22
2022-12-14T12:08:34.431Z,1.85
2022-12-14T12:11:22.313Z,2.08
2022-12-14T12:14:35.793Z,2.10
2022-12-14T12:17:18.152Z,1.60
2022-12-14T12:19:48.299Z,1.90
2022-12-14T12:22:16.604Z,2.70
2022-12-14T12:25:24.877Z,1.88
2022-12-14T12:27:59.858Z,2.08
2022-12-14T12:30:31.642Z,2.05
2022-12-14T12:33:10.567Z,2.10
2022-12-14T12:35:47.044Z,2.53
2022-12-14T12:38:26.690Z,2.55
2022-12-14T12:41:23.009Z,2.25
2022-12-14T12:43:58.508Z,2.25
2022-12-14T12:46:33.185Z,2.15
2022-12-14T12:49:10.799Z,2.20
2022-12-14T12:51:49.705Z,2.33
2022-12-14T12:54:24.699Z,2.22
2022-12-14T12:56:56.106Z,1.83
2022-12-14T12:59:26.266Z,2.40
2022-12-14T13:01:58.643Z,2.20
2022-12-14T13:04:35.049Z,2.30
2022-12-14T13:07:16.914Z,2.40
2022-12-14T13:09:52.321Z,2.40
2022-12-14T13:12:38.040Z,2.83
2022-12-14T13:15:16.610Z,2.10
2022-12-14T13:17:49.363Z,2.70
2022-12-14T13:20:22.098Z,2.53
2022-12-14T13:22:49.931Z,2.47
2022-12-14T13:25:53.581Z,2.42
2022-12-14T13:28:31.338Z,3.25
2022-12-14T13:31:10.529Z,2.92
2022-12-14T13:33:55.636Z,3.20
2022-12-14T13:36:22.727Z,2.88
2022-12-14T13:39:14.856Z,2.67
2022-12-14T13:42:06.138Z,4.68
2022-12-14T13:45:04.818Z,2.85
2022-12-14T13:47:43.929Z,3.00
2022-12-14T13:50:55.970Z,2.78
2022-12-14T13:53:50.439Z,2.78
2022-12-14T13:56:35.495Z,2.78
2022-12-14T13:59:07.702Z,2.60
2022-12-14T14:01:47.260Z,2.70
2022-12-14T14:04:17.333Z,2.45
2022-12-14T14:06:46.913Z,3.08
2022-12-14T14:09:28.997Z,3.10
2022-12-14T14:12:08.113Z,2.88
2022-12-14T14:14:56.456Z,2.45
2022-12-14T14:17:28.591Z,2.53
2022-12-14T14:20:24.260Z,2.80
2022-12-14T14:23:13.103Z,2.83
2022-12-14T14:25:45.896Z,2.67
2022-12-14T14:28:22.431Z,2.85
2022-12-14T14:31:08.740Z,2.72
2022-12-14T14:33:47.547Z,3.30
2022-12-14T14:36:33.931Z,2.38
2022-12-14T14:39:56.670Z,3.15
2022-12-14T14:42:25.677Z,2.45
2022-12-14T14:44:52.859Z,3.70
2022-12-14T14:47:33.473Z,2.92
2022-12-14T14:50:21.989Z,3.25
2022-12-14T14:53:01.625Z,3.33
2022-12-14T14:58:30.632Z,3.20
2022-12-14T15:01:17.812Z,3.53
2022-12-14T15:03:45.184Z,3.58
2022-12-14T15:06:19.971Z,4.28
2022-12-14T15:09:09.163Z,2.70
2022-12-14T15:11:53.420Z,2.88
2022-12-14T15:14:48.956Z,3.22
2022-12-14T15:17:21.942Z,3.33
2022-12-14T15:19:55.277Z,3.97
2022-12-14T15:22:28.902Z,3.25
2022-12-14T15:24:58.679Z,3.63
2022-12-14T15:27:31.498Z,3.28
2022-12-14T15:30:10.587Z,3.55
2022-12-14T15:32:45.798Z,3.50
2022-12-14T15:35:18.433Z,4.10
2022-12-14T15:37:50.667Z,3.60
2022-12-14T15:40:30.614Z,3.60
2022-12-14T15:43:00.382Z,3.63
2022-12-14T15:45:41.073Z,3.42
2022-12-14T15:48:31.114Z,3.25
2022-12-14T15:51:03.976Z,2.33
2022-12-14T15:53:35.821Z,3.40
2022-12-14T15:56:16.768Z,3.00
2022-12-14T15:58:44.876Z,3.22
2022-12-14T16:01:20.233Z,3.05
2022-12-14T16:03:51.943Z,3.38
2022-12-14T16:06:20.225Z,3.13
2022-12-14T16:09:10.054Z,3.03
2022-12-14T16:11:44.685Z,2.88
2022-12-14T16:14:45.781Z,3.65
2022-12-14T16:17:20.796Z,3.50
2022-12-14T16:20:00.031Z,4.15
2022-12-14T16:22:32.576Z,3.95
2022-12-14T16:25:08.525Z,3.80
2022-12-14T16:27:42.415Z,4.53
2022-12-14T16:30:31.377Z,4.50
2022-12-14T16:33:19.654Z,3.97
2022-12-14T16:35:57.961Z,4.20
2022-12-14T16:38:25.174Z,3.88
2022-12-14T16:40:55.372Z,3.60
2022-12-14T16:43:31.111Z,3.45
2022-12-14T16:46:04.700Z,3.60
2022-12-14T16:51:38.299Z,3.10
2022-12-14T16:54:24.168Z,3.40
2022-12-14T16:56:57.147Z,3.80
2022-12-14T16:59:28.919Z,4.30
2022-12-14T17:01:56.455Z,3.92
2022-12-14T17:04:31.257Z,4.10
2022-12-14T17:06:58.367Z,3.67
2022-12-14T17:09:28.501Z,4.50
2022-12-14T17:12:00.279Z,3.78
2022-12-14T17:14:28.280Z,4.22
2022-12-14T17:17:01.449Z,4.38
2022-12-14T17:22:14.932Z,3.72
2022-12-14T17:24:50.721Z,2.83
2022-12-14T17:27:29.061Z,3.90
2022-12-14T17:30:41.842Z,3.83
2022-12-14T17:33:35.181Z,4.45
2022-12-14T17:36:08.665Z,3.67
2022-12-14T17:38:41.944Z,4.32
2022-12-14T17:41:27.820Z,4.28
2022-12-14T17:44:17.547Z,4.15
2022-12-14T17:50:01.859Z,4.25
2022-12-14T17:52:32.689Z,4.10
2022-12-14T17:55:00.205Z,4.68
2022-12-14T17:57:27.327Z,4.30
2022-12-14T18:00:14.419Z,4.82
2022-12-14T18:02:42.787Z,3.80
2022-12-14T18:05:20.089Z,4.10
2022-12-14T18:07:50.701Z,3.85
2022-12-14T18:13:31.183Z,3.47
2022-12-14T18:16:06.302Z,3.05
2022-12-14T18:18:33.421Z,3.47
2022-12-14T18:21:02.992Z,5.18
2022-12-14T18:23:31.698Z,3.42
2022-12-14T18:26:00.525Z,3.85
2022-12-14T18:28:28.328Z,4.03
2022-12-14T18:31:04.791Z,4.22
2022-12-14T18:33:34.819Z,3.90
2022-12-14T18:36:02.138Z,4.63
2022-12-14T18:38:29.766Z,5.32
2022-12-14T18:40:59.120Z,5.35
2022-12-14T18:43:29.111Z,4.28
2022-12-14T18:45:57.328Z,4.72
2022-12-14T18:48:25.536Z,4.45
2022-12-14T18:50:54.307Z,4.53
2022-12-14T18:53:23.711Z,4.78
2022-12-14T18:55:53.416Z,3.65
2022-12-14T18:58:26.264Z,3.63
2022-12-14T19:00:56.508Z,3.95
2022-12-14T19:03:25.067Z,4.18
2022-12-14T19:06:42.127Z,3.78
2022-12-14T19:08:57.205Z,3.85
2022-12-14T19:11:30.367Z,3.85
2022-12-14T19:13:59.005Z,4.25
2022-12-14T19:16:27.237Z,3.42
2022-12-14T19:18:57.467Z,3.33
2022-12-14T19:21:26.335Z,4.30
2022-12-14T19:23:56.879Z,3.50
2022-12-14T19:26:25.956Z,3.58
2022-12-14T19:28:53.034Z,3.28
2022-12-14T19:31:21.700Z,3.28
2022-12-14T19:33:48.827Z,3.42
2022-12-14T19:36:17.360Z,3.85
2022-12-14T19:38:49.092Z,3.33
2022-12-14T19:41:23.333Z,3.40
2022-12-14T19:43:51.400Z,3.42
2022-12-14T19:46:19.570Z,4.18
2022-12-14T19:48:47.434Z,3.10
2022-12-14T19:51:14.848Z,4.10
2022-12-14T19:53:44.223Z,3.58
2022-12-14T19:56:18.610Z,3.20
2022-12-14T19:58:47.948Z,3.25
2022-12-14T20:01:16.895Z,3.35
2022-12-14T20:03:45.294Z,2.75
2022-12-14T20:06:13.427Z,3.10
2022-12-14T20:08:44.033Z,3.50
2022-12-14T20:11:17.510Z,2.80
2022-12-14T20:13:45.388Z,3.08
2022-12-14T20:16:20.177Z,3.20
2022-12-14T20:18:50.906Z,3.42
2022-12-14T20:21:22.327Z,2.92
2022-12-14T20:23:51.467Z,2.55
2022-12-14T20:26:21.571Z,3.53
2022-12-14T20:29:01.263Z,3.25
2022-12-14T20:31:28.938Z,3.10
2022-12-14T20:33:57.033Z,3.40
2022-12-14T20:36:24.075Z,2.90
2022-12-14T20:38:56.179Z,3.55
2022-12-14T20:41:25.258Z,3.58
2022-12-14T20:43:53.102Z,3.03
2022-12-14T20:46:31.125Z,4.13
2022-12-14T20:49:02.746Z,3.10
2022-12-14T20:51:31.623Z,3.20
2022-12-14T20:53:59.354Z,2.85
2022-12-14T20:56:26.662Z,3.50
2022-12-14T20:58:53.829Z,2.65
2022-12-14T21:01:21.810Z,3.03
2022-12-14T21:03:50.900Z,3.80
2022-12-14T21:06:21.511Z,3.50
2022-12-14T21:09:12.994Z,3.30
2022-12-14T21:12:10.824Z,3.50
2022-12-14T21:14:42.616Z,3.33
2022-12-14T21:17:11.060Z,3.30
2022-12-14T21:19:38.293Z,3.53
2022-12-14T21:22:07.476Z,3.03
2022-12-14T21:25:01.606Z,3.13
2022-12-14T21:27:27.497Z,3.13
2022-12-14T21:29:54.682Z,3.83
2022-12-14T21:32:23.826Z,3.25
2022-12-14T21:34:54.237Z,3.40
2022-12-14T21:37:22.705Z,3.33
2022-12-14T21:39:54.970Z,2.92
2022-12-14T21:42:24.565Z,3.40
2022-12-14T21:44:53.130Z,2.83
2022-12-14T21:47:26.788Z,3.17
2022-12-14T21:49:54.304Z,2.65
2022-12-14T21:52:25.518Z,3.42
2022-12-14T21:54:52.722Z,3.40
2022-12-14T21:57:50.205Z,3.35
2022-12-14T22:00:20.097Z,3.38
2022-12-14T22:02:49.563Z,3.65
2022-12-14T22:05:16.888Z,3.38
2022-12-14T22:07:44.159Z,3.75
2022-12-14T22:10:11.248Z,4.28
2022-12-14T22:12:39.712Z,3.05
2022-12-14T22:15:07.477Z,3.15
2022-12-14T22:17:34.817Z,3.80
2022-12-14T22:20:02.130Z,3.30
2022-12-14T22:22:30.265Z,3.97
2022-12-14T22:24:57.295Z,3.55
2022-12-14T22:27:24.439Z,3.70
2022-12-14T22:29:51.621Z,4.00
2022-12-14T22:32:18.789Z,4.32
2022-12-14T22:34:45.930Z,4.55
2022-12-14T22:37:19.452Z,4.20
2022-12-14T22:39:47.635Z,3.65
2022-12-14T22:42:15.510Z,4.78
2022-12-14T22:44:42.555Z,3.60
2022-12-14T22:47:09.658Z,4.30
2022-12-14T22:49:36.840Z,4.22
2022-12-14T22:52:04.059Z,4.80
2022-12-14T22:54:31.195Z,4.15
2022-12-14T22:57:08.572Z,4.15
2022-12-14T22:59:39.809Z,3.75
2022-12-14T23:02:07.082Z,4.25
2022-12-14T23:04:36.904Z,4.40
2022-12-14T23:07:04.476Z,4.13
2022-12-14T23:09:50.353Z,4.32
2022-12-14T23:12:35.986Z,4.75
2022-12-14T23:15:21.603Z,4.78
2022-12-14T23:18:07.142Z,4.05
2022-12-14T23:20:52.713Z,4.60
2022-12-14T23:23:40.098Z,3.97
2022-12-14T23:26:27.179Z,4.40
2022-12-14T23:29:12.644Z,4.65
2022-12-14T23:32:01.702Z,4.15
2022-12-14T23:34:47.934Z,4.35
2022-12-14T23:37:33.574Z,5.07
2022-12-14T23:40:19.152Z,4.38
2022-12-14T23:43:04.722Z,4.88
2022-12-14T23:45:50.255Z,3.92
2022-12-14T23:48:35.997Z,4.57
2022-12-14T23:51:22.133Z,4.22
2022-12-14T23:54:11.699Z,4.45
2022-12-14T23:56:58.773Z,4.20
2022-12-14T23:59:44.415Z,4.05
